No particular awareness of the weather is required.    There are no Weather-warnings


Meteo18 Weather Cam more information Meteo18 Weather Cam


Thunder radar more information blitzortung!


Rain radar more information rain snow radar


Visit our other weather sites:

Template documentation
and downloads

And another site



Weather Underground History page Text

Daily Summary for April 19, 2017 Units:  English    Metric   Both
« Previous Day
Next Day »
Daily Weekly Monthly Yearly Custom
  High: Low: Average:
Temperature: 50.5 °F 33.8 °F 42.4 °F
Dew Point: 35.8 °F 25.5 °F 30.4 °F
Humidity: 88 % 41 % 64 %
Wind Speed: 22 mph 0 mph 6.2 mph
Wind Gust: 27 mph - -
Wind:- - East
Pressure: 30.5 in 30.4 in -
Precipitation: 0 in    
Historical Graphs
 
 
Tabular Data for April 19, 2017
Time Temperature Dew Point Pressure Wind Wind Speed Wind Gust Humidity Rainfall Rate (Hourly)
00:07 39.4 °F 34.3 °F 30.4 in Calm   8 mph 82 % 0 in
00:12 39.4 °F 34.3 °F 30.4 in NNW 3 mph 8 mph 82 % 0 in
00:17 39.7 °F 34.3 °F 30.4 in NE 3 mph 8 mph 81 % 0 in
00:22 39.6 °F 34.2 °F 30.4 in NE 4 mph 12 mph 81 % 0 in
00:27 39.2 °F 33.8 °F 30.4 in NE 1 mph 12 mph 81 % 0 in
00:32 39 °F 33.6 °F 30.4 in North 3 mph 12 mph 81 % 0 in
00:37 39 °F 33.6 °F 30.4 in NE 2 mph 6 mph 81 % 0 in
00:42 39.2 °F 33.6 °F 30.4 in North 2 mph 6 mph 80 % 0 in
00:52 38.8 °F 33.4 °F 30.4 in North 1 mph 5 mph 81 % 0 in
00:57 38.8 °F 33.4 °F 30.4 in NNE 1 mph 4 mph 81 % 0 in
01:02 38.8 °F 33.4 °F 30.4 in NNW 4 mph 4 mph 81 % 0 in
01:12 38.8 °F 33.4 °F 30.4 in NNW 3 mph 5 mph 81 % 0 in
01:17 38.5 °F 33.1 °F 30.4 in North 2 mph 5 mph 81 % 0 in
01:22 38.1 °F 32.7 °F 30.4 in NW 1 mph 4 mph 81 % 0 in
01:32 37.8 °F 33.1 °F 30.4 in NNW 2 mph 4 mph 83 % 0 in
01:37 37.8 °F 33.1 °F 30.4 in North 5 mph 7 mph 83 % 0 in
01:42 37.8 °F 33.1 °F 30.4 in NNE 3 mph 7 mph 83 % 0 in
01:47 37.8 °F 33.1 °F 30.4 in NNE 3 mph 7 mph 83 % 0 in
01:52 37.6 °F 32.9 °F 30.4 in NE 2 mph 8 mph 83 % 0 in
01:57 37.8 °F 33.1 °F 30.4 in NNE 6 mph 8 mph 83 % 0 in
02:02 37.6 °F 32.9 °F 30.4 in North 2 mph 8 mph 83 % 0 in
02:07 37.8 °F 33.1 °F 30.4 in North 3 mph 8 mph 83 % 0 in
02:12 37.6 °F 32.9 °F 30.4 in NNE 1 mph 8 mph 83 % 0 in
02:17 37.8 °F 33.4 °F 30.4 in Calm   8 mph 84 % 0 in
02:22 37.6 °F 33.3 °F 30.4 in NNE 5 mph 10 mph 84 % 0 in
02:32 37 °F 32.7 °F 30.4 in NW 3 mph 10 mph 84 % 0 in
02:37 37 °F 32.9 °F 30.4 in Calm   6 mph 85 % 0 in
02:42 36.9 °F 32.7 °F 30.4 in North 3 mph 6 mph 85 % 0 in
02:47 36.9 °F 32.7 °F 30.4 in NNE 4 mph 6 mph 85 % 0 in
02:52 36.9 °F 32.7 °F 30.4 in NNE 4 mph 7 mph 85 % 0 in
02:57 36.9 °F 32.7 °F 30.4 in North 6 mph 7 mph 85 % 0 in
03:02 36.9 °F 32.7 °F 30.4 in NE 1 mph 7 mph 85 % 0 in
03:07 36.9 °F 32.7 °F 30.4 in NNE 5 mph 6 mph 85 % 0 in
03:12 36.9 °F 32.7 °F 30.4 in NE 2 mph 7 mph 85 % 0 in
03:17 36.9 °F 32.7 °F 30.4 in NE 1 mph 7 mph 85 % 0 in
03:22 36.7 °F 32.5 °F 30.4 in North 2 mph 7 mph 85 % 0 in
03:27 36.5 °F 32.4 °F 30.4 in NNE 4 mph 5 mph 85 % 0 in
03:32 36.5 °F 32.4 °F 30.4 in NE 4 mph 5 mph 85 % 0 in
03:37 36.3 °F 32.2 °F 30.4 in North 4 mph 5 mph 85 % 0 in
03:42 36.3 °F 32.2 °F 30.4 in NE 2 mph 5 mph 85 % 0 in
03:52 36.3 °F 32.2 °F 30.4 in NE 1 mph 6 mph 85 % 0 in
04:02 36.9 °F 32.5 °F 30.4 in NNE 7 mph 7 mph 84 % 0 in
04:12 36.7 °F 32.5 °F 30.4 in NE 5 mph 10 mph 85 % 0 in
04:17 36.7 °F 32.4 °F 30.4 in NE 5 mph 8 mph 84 % 0 in
04:22 36.5 °F 32.4 °F 30.4 in NE 1 mph 9 mph 85 % 0 in
04:32 36.1 °F 32 °F 30.4 in NNE 1 mph 9 mph 85 % 0 in
04:37 36.1 °F 32 °F 30.4 in North 3 mph 7 mph 85 % 0 in
04:42 36.1 °F 32 °F 30.4 in North 4 mph 7 mph 85 % 0 in
04:47 36 °F 31.8 °F 30.4 in NNE 3 mph 9 mph 85 % 0 in
04:52 35.8 °F 31.6 °F 30.4 in NNW 1 mph 9 mph 85 % 0 in
05:02 35.2 °F 31.5 °F 30.4 in NNE 1 mph 7 mph 86 % 0 in
05:12 35.1 °F 31.6 °F 30.4 in NNE 3 mph 8 mph 87 % 0 in
05:17 35.1 °F 31.6 °F 30.4 in NNW 2 mph 8 mph 87 % 0 in
05:22 34.9 °F 31.5 °F 30.4 in NNE 3 mph 8 mph 87 % 0 in
05:32 34.9 °F 31.5 °F 30.4 in ENE 6 mph 8 mph 87 % 0 in
05:42 34.9 °F 31.5 °F 30.4 in NE 2 mph 9 mph 87 % 0 in
05:47 34.9 °F 31.5 °F 30.4 in NNE 2 mph 9 mph 87 % 0 in
05:52 34.7 °F 31.3 °F 30.4 in NNW 2 mph 9 mph 87 % 0 in
06:02 34.5 °F 31.1 °F 30.4 in NNE 3 mph 7 mph 87 % 0 in
06:12 34.7 °F 31.5 °F 30.4 in East 2 mph 8 mph 88 % 0 in
06:17 34.5 °F 31.1 °F 30.4 in NNE 3 mph 10 mph 87 % 0 in
06:22 34.5 °F 31.1 °F 30.4 in North 3 mph 10 mph 87 % 0 in
06:32 34.3 °F 31.1 °F 30.4 in NNE 2 mph 10 mph 88 % 0 in
06:42 34.2 °F 30.9 °F 30.4 in North 1 mph 8 mph 88 % 0 in
06:47 34 °F 30.7 °F 30.4 in North 2 mph 8 mph 88 % 0 in
06:52 33.8 °F 30.6 °F 30.4 in NNE 3 mph 8 mph 88 % 0 in
06:57 34 °F 30.7 °F 30.4 in NNW 1 mph 6 mph 88 % 0 in
07:02 34 °F 30.7 °F 30.4 in WNW 1 mph 6 mph 88 % 0 in
07:12 34.2 °F 30.9 °F 30.4 in North 2 mph 5 mph 88 % 0 in
07:17 34.3 °F 31.1 °F 30.4 in North 1 mph 6 mph 88 % 0 in
07:22 34.5 °F 31.3 °F 30.4 in Calm   6 mph 88 % 0 in
07:32 34.9 °F 31.5 °F 30.4 in NNE 4 mph 6 mph 87 % 0 in
07:42 35.4 °F 32 °F 30.4 in WNW 1 mph 5 mph 87 % 0 in
07:47 35.8 °F 32 °F 30.4 in North 2 mph 8 mph 86 % 0 in
07:52 36 °F 32.2 °F 30.4 in North 4 mph 8 mph 86 % 0 in
07:57 36.1 °F 32.4 °F 30.4 in NNE 1 mph 8 mph 86 % 0 in
08:02 36.3 °F 32.2 °F 30.4 in NNW 2 mph 8 mph 85 % 0 in
08:12 37 °F 32.9 °F 30.4 in NNW 1 mph 6 mph 85 % 0 in
08:17 37.2 °F 33.1 °F 30.4 in North 7 mph 7 mph 85 % 0 in
08:22 37.6 °F 33.3 °F 30.4 in North 4 mph 7 mph 84 % 0 in
08:27 37.9 °F 33.3 °F 30.4 in WNW 1 mph 7 mph 83 % 0 in
08:32 38.3 °F 33.3 °F 30.4 in NNE 5 mph 7 mph 82 % 0 in
08:37 38.7 °F 33.3 °F 30.4 in North 3 mph 13 mph 81 % 0 in
08:42 39 °F 33.6 °F 30.4 in NE 3 mph 13 mph 81 % 0 in
08:52 39.4 °F 33.8 °F 30.4 in NE 10 mph 13 mph 80 % 0 in
08:57 39.6 °F 33.6 °F 30.4 in NNE 8 mph 10 mph 79 % 0 in
09:02 39.7 °F 33.8 °F 30.5 in NNE 5 mph 10 mph 79 % 0 in
09:12 39.9 °F 34 °F 30.5 in NNE 10 mph 16 mph 79 % 0 in
09:22 40.5 °F 34.5 °F 30.5 in NE 6 mph 16 mph 79 % 0 in
09:32 41 °F 34.3 °F 30.5 in NE 9 mph 14 mph 77 % 0 in
09:42 40.6 °F 34.3 °F 30.5 in NNE 6 mph 12 mph 78 % 0 in
09:52 41.2 °F 34.9 °F 30.5 in NNE 4 mph 13 mph 78 % 0 in
10:02 42.3 °F 34.9 °F 30.5 in ENE 4 mph 14 mph 75 % 0 in
10:12 43 °F 35.6 °F 30.5 in East 7 mph 13 mph 75 % 0 in
10:17 43.5 °F 35.8 °F 30.5 in NE 5 mph 13 mph 74 % 0 in
10:22 43.5 °F 35.8 °F 30.5 in NE 1 mph 13 mph 74 % 0 in
10:32 44.1 °F 34.9 °F 30.5 in NE 8 mph 12 mph 70 % 0 in
10:37 44.4 °F 34.9 °F 30.5 in ENE 7 mph 14 mph 69 % 0 in
10:42 44.8 °F 35.2 °F 30.5 in NNW 8 mph 14 mph 69 % 0 in
10:52 45.1 °F 35.2 °F 30.5 in North 8 mph 14 mph 68 % 0 in
11:02 45.7 °F 34.5 °F 30.5 in North 14 mph 16 mph 65 % 0 in
11:12 46.2 °F 35.1 °F 30.5 in NNE 11 mph 19 mph 65 % 0 in
11:17 46.4 °F 35.2 °F 30.5 in NE 10 mph 16 mph 65 % 0 in
11:22 45.9 °F 32.7 °F 30.5 in NNE 17 mph 17 mph 60 % 0 in
11:32 46 °F 33.3 °F 30.5 in ENE 8 mph 22 mph 61 % 0 in
11:37 46.8 °F 33.6 °F 30.5 in NE 5 mph 22 mph 60 % 0 in
11:42 46.2 °F 31.5 °F 30.5 in North 12 mph 18 mph 56 % 0 in
11:47 45.7 °F 31.8 °F 30.5 in NNE 6 mph 21 mph 58 % 0 in
11:52 46.8 °F 32.7 °F 30.5 in East 7 mph 21 mph 58 % 0 in
11:57 47.1 °F 32.7 °F 30.5 in NNE 6 mph 21 mph 57 % 0 in
12:02 47.5 °F 33.4 °F 30.5 in NE 9 mph 21 mph 58 % 0 in
12:07 46.9 °F 32 °F 30.5 in NNW 8 mph 20 mph 56 % 0 in
12:12 46.2 °F 31.8 °F 30.5 in NE 9 mph 20 mph 57 % 0 in
12:17 46 °F 31.6 °F 30.5 in NW 11 mph 18 mph 57 % 0 in
12:22 46.8 °F 31.8 °F 30.5 in NNE 10 mph 18 mph 56 % 0 in
12:27 46.6 °F 29.8 °F 30.5 in NNE 11 mph 18 mph 52 % 0 in
12:32 47.3 °F 30 °F 30.5 in ENE 8 mph 19 mph 51 % 0 in
12:37 47.8 °F 29.7 °F 30.5 in East 8 mph 19 mph 49 % 0 in
12:42 48 °F 31.6 °F 30.5 in NNW 4 mph 19 mph 53 % 0 in
12:52 47.7 °F 31.8 °F 30.5 in NNE 14 mph 18 mph 54 % 0 in
12:57 47.8 °F 30.6 °F 30.5 in North 16 mph 20 mph 51 % 0 in
13:02 48.2 °F 32.7 °F 30.5 in ENE 10 mph 20 mph 55 % 0 in
13:07 47.5 °F 30.2 °F 30.5 in NE 14 mph 22 mph 51 % 0 in
13:12 48 °F 30.7 °F 30.5 in NE 7 mph 22 mph 51 % 0 in
13:17 48.4 °F 30 °F 30.5 in North 7 mph 20 mph 49 % 0 in
13:22 48 °F 30.7 °F 30.5 in NNE 11 mph 20 mph 51 % 0 in
13:27 48.4 °F 29.1 °F 30.5 in NNE 12 mph 18 mph 47 % 0 in
13:32 48.7 °F 29.8 °F 30.5 in NE 12 mph 18 mph 48 % 0 in
13:37 49.1 °F 30.2 °F 30.5 in NE 13 mph 21 mph 48 % 0 in
13:42 49.5 °F 31.1 °F 30.5 in NE 13 mph 21 mph 49 % 0 in
13:52 48.7 °F 30.9 °F 30.5 in NE 19 mph 21 mph 50 % 0 in
13:57 48 °F 29.3 °F 30.5 in NE 8 mph 19 mph 48 % 0 in
14:07 49.8 °F 30.9 °F 30.5 in NNW 5 mph 19 mph 48 % 0 in
14:12 50.4 °F 30.9 °F 30.5 in NW 5 mph 19 mph 47 % 0 in
14:17 49.3 °F 30.9 °F 30.5 in NE 18 mph 19 mph 49 % 0 in
14:22 48.6 °F 31.3 °F 30.5 in NNE 13 mph 19 mph 51 % 0 in
14:32 48.9 °F 28.6 °F 30.5 in NE 18 mph 23 mph 45 % 0 in
14:37 48.7 °F 29.8 °F 30.5 in NE 18 mph 27 mph 48 % 0 in
14:42 48.7 °F 28.4 °F 30.5 in NNE 9 mph 27 mph 45 % 0 in
14:47 48 °F 28.2 °F 30.5 in NE 17 mph 25 mph 46 % 0 in
14:52 48.9 °F 29.1 °F 30.5 in NE 9 mph 25 mph 46 % 0 in
14:57 49.6 °F 28 °F 30.5 in NE 6 mph 25 mph 43 % 0 in
15:02 48.7 °F 29.8 °F 30.5 in NE 13 mph 25 mph 48 % 0 in
15:12 49.3 °F 28.2 °F 30.5 in NNW 5 mph 20 mph 44 % 0 in
15:17 49.5 °F 28.9 °F 30.5 in NE 9 mph 22 mph 45 % 0 in
15:22 49.3 °F 28.8 °F 30.4 in NE 19 mph 22 mph 45 % 0 in
15:27 49.5 °F 28.9 °F 30.5 in NNE 7 mph 24 mph 45 % 0 in
15:32 49.8 °F 30.9 °F 30.5 in North 5 mph 24 mph 48 % 0 in
15:37 49.6 °F 29.1 °F 30.4 in NNW 10 mph 24 mph 45 % 0 in
15:42 49.8 °F 29.3 °F 30.4 in NE 10 mph 24 mph 45 % 0 in
15:47 49.6 °F 29.1 °F 30.4 in NE 6 mph 22 mph 45 % 0 in
15:52 49.6 °F 29.1 °F 30.4 in NE 5 mph 22 mph 45 % 0 in
16:02 48.9 °F 28.6 °F 30.4 in ENE 6 mph 20 mph 45 % 0 in
16:12 49.6 °F 29.1 °F 30.4 in NNE 6 mph 22 mph 45 % 0 in
16:17 50.2 °F 29.1 °F 30.4 in ESE 3 mph 22 mph 44 % 0 in
16:22 49.6 °F 27 °F 30.4 in NNE 7 mph 22 mph 41 % 0 in
16:27 49.3 °F 27.7 °F 30.4 in NNE 5 mph 20 mph 43 % 0 in
16:32 50 °F 27.9 °F 30.4 in ENE 8 mph 20 mph 42 % 0 in
16:37 50.5 °F 29.5 °F 30.4 in NNE 22 mph 22 mph 44 % 0 in
16:42 49.3 °F 28.8 °F 30.4 in NE 8 mph 20 mph 45 % 0 in
16:47 48.6 °F 28.8 °F 30.4 in NE 17 mph 26 mph 46 % 0 in
16:57 48.9 °F 28.6 °F 30.4 in NNW 11 mph 22 mph 45 % 0 in
17:02 49.6 °F 28.6 °F 30.4 in NE 7 mph 22 mph 44 % 0 in
17:12 48.7 °F 27.3 °F 30.4 in NE 11 mph 19 mph 43 % 0 in
17:17 48.9 °F 28.6 °F 30.4 in NNW 9 mph 21 mph 45 % 0 in
17:22 49.5 °F 27.9 °F 30.4 in NE 10 mph 21 mph 43 % 0 in
17:32 49.3 °F 28.8 °F 30.4 in NE 13 mph 18 mph 45 % 0 in
17:42 49.3 °F 29.8 °F 30.4 in North 5 mph 20 mph 47 % 0 in
17:47 49.5 °F 27.3 °F 30.4 in NE 15 mph 20 mph 42 % 0 in
17:52 49.6 °F 28.6 °F 30.4 in NNE 6 mph 20 mph 44 % 0 in
17:57 49.5 °F 27.9 °F 30.4 in NE 16 mph 20 mph 43 % 0 in
18:02 48.7 °F 28.9 °F 30.4 in NNE 11 mph 20 mph 46 % 0 in
18:12 48.6 °F 28.8 °F 30.4 in NNE 15 mph 20 mph 46 % 0 in
18:17 48.6 °F 27.1 °F 30.4 in NE 14 mph 19 mph 43 % 0 in
18:22 48.9 °F 28 °F 30.4 in NE 13 mph 19 mph 44 % 0 in
18:27 48.9 °F 29.1 °F 30.4 in NNE 10 mph 19 mph 46 % 0 in
18:32 48 °F 28.2 °F 30.4 in NE 20 mph 20 mph 46 % 0 in
18:37 47.5 °F 27.7 °F 30.4 in ENE 7 mph 19 mph 46 % 0 in
18:42 47.5 °F 27.7 °F 30.4 in NE 6 mph 21 mph 46 % 0 in
18:52 48 °F 28.8 °F 30.4 in NE 10 mph 21 mph 47 % 0 in
18:57 48 °F 28.2 °F 30.4 in NE 12 mph 16 mph 46 % 0 in
19:02 47.7 °F 26.8 °F 30.4 in North 16 mph 16 mph 44 % 0 in
19:12 47.7 °F 27.9 °F 30.4 in ENE 5 mph 20 mph 46 % 0 in
19:17 47.8 °F 28 °F 30.4 in NNE 3 mph 18 mph 46 % 0 in
19:22 47.5 °F 27.1 °F 30.4 in NNE 8 mph 18 mph 45 % 0 in
19:32 46.8 °F 27.7 °F 30.4 in NE 17 mph 17 mph 47 % 0 in
19:37 46.8 °F 27.7 °F 30.5 in ENE 4 mph 19 mph 47 % 0 in
19:42 46.8 °F 27.1 °F 30.4 in NNE 8 mph 19 mph 46 % 0 in
19:47 46.4 °F 26.2 °F 30.5 in NE 8 mph 19 mph 45 % 0 in
19:52 46 °F 26.4 °F 30.5 in NE 11 mph 19 mph 46 % 0 in
19:57 45.9 °F 26.8 °F 30.5 in NNE 11 mph 18 mph 47 % 0 in
20:02 45.9 °F 26.2 °F 30.5 in NE 11 mph 18 mph 46 % 0 in
20:12 45.9 °F 26.2 °F 30.5 in NE 9 mph 15 mph 46 % 0 in
20:17 45.5 °F 25.9 °F 30.5 in NNE 5 mph 17 mph 46 % 0 in
20:22 45.1 °F 26.1 °F 30.5 in NE 14 mph 17 mph 47 % 0 in
20:27 45 °F 25.9 °F 30.5 in NE 10 mph 19 mph 47 % 0 in
20:32 44.8 °F 26.2 °F 30.5 in NE 9 mph 19 mph 48 % 0 in
20:37 44.4 °F 25.9 °F 30.5 in NE 6 mph 19 mph 48 % 0 in
20:42 44.2 °F 25.7 °F 30.5 in NE 10 mph 19 mph 48 % 0 in
20:47 44.1 °F 25.7 °F 30.5 in North 6 mph 15 mph 48 % 0 in
20:52 43.9 °F 25.9 °F 30.5 in NNE 8 mph 15 mph 49 % 0 in
20:57 43.5 °F 26.1 °F 30.5 in ENE 5 mph 14 mph 50 % 0 in
21:02 43.2 °F 26.2 °F 30.5 in NE 4 mph 14 mph 51 % 0 in
21:07 43 °F 26.1 °F 30.5 in NNE 6 mph 9 mph 51 % 0 in
21:12 42.6 °F 25.7 °F 30.5 in NNE 6 mph 9 mph 51 % 0 in
21:17 42.6 °F 25.7 °F 30.5 in NNE 5 mph 9 mph 51 % 0 in
21:22 42.4 °F 26.1 °F 30.5 in ENE 4 mph 9 mph 52 % 0 in
21:27 42.3 °F 25.9 °F 30.5 in NNE 9 mph 10 mph 52 % 0 in
21:32 42.4 °F 26.1 °F 30.5 in NNW 2 mph 10 mph 52 % 0 in
21:42 42.6 °F 25.7 °F 30.5 in NNE 7 mph 12 mph 51 % 0 in
21:47 42.6 °F 25.7 °F 30.5 in NE 4 mph 15 mph 51 % 0 in
21:52 42.4 °F 25.5 °F 30.5 in NE 4 mph 15 mph 51 % 0 in
21:57 42.3 °F 25.9 °F 30.5 in NE 2 mph 14 mph 52 % 0 in
22:02 41.9 °F 26.1 °F 30.5 in NNE 2 mph 14 mph 53 % 0 in
22:12 41.2 °F 26.2 °F 30.5 in Calm   12 mph 55 % 0 in
22:17 40.6 °F 26.2 °F 30.5 in WNW 1 mph 6 mph 56 % 0 in
22:22 40.3 °F 26.2 °F 30.5 in NW 1 mph 6 mph 57 % 0 in
22:27 39.9 °F 25.9 °F 30.5 in NNW 3 mph 6 mph 57 % 0 in
22:32 39.7 °F 26.2 °F 30.5 in NW 1 mph 6 mph 58 % 0 in
22:37 39.6 °F 26.1 °F 30.5 in NNW 1 mph 5 mph 58 % 0 in
22:42 39 °F 25.9 °F 30.5 in Calm   5 mph 59 % 0 in
22:47 38.8 °F 26.1 °F 30.5 in North 1 mph 5 mph 60 % 0 in
22:52 38.7 °F 26.1 °F 30.5 in NNE 1 mph 5 mph 60 % 0 in
22:57 38.5 °F 26.2 °F 30.5 in North 1 mph 5 mph 61 % 0 in
23:02 38.5 °F 26.2 °F 30.5 in North 1 mph 5 mph 61 % 0 in
23:07 38.1 °F 25.9 °F 30.5 in NNW 2 mph 3 mph 61 % 0 in
23:12 38.5 °F 26.2 °F 30.5 in NW 1 mph 3 mph 61 % 0 in
23:17 38.7 °F 26.4 °F 30.5 in NNW 3 mph 5 mph 61 % 0 in
23:22 38.7 °F 26.1 °F 30.5 in NE 4 mph 5 mph 60 % 0 in
23:32 38.5 °F 25.9 °F 30.5 in NE 4 mph 7 mph 60 % 0 in
23:37 38.5 °F 25.9 °F 30.5 in NNE 1 mph 7 mph 60 % 0 in
23:42 38.5 °F 25.9 °F 30.5 in NNE 2 mph 7 mph 60 % 0 in
23:52 38.7 °F 25.5 °F 30.5 in NNE 3 mph 6 mph 59 % 0 in
Meteo18
Compliments of Weather Underground - 4 mb

Script developed by  Jim McMurry - jmcmurry@mwt.net Adapted for the template by  Wim van der Kuil - Leuven-Template.eu

You find our weather info also at:

European Weather Network

Weather Underground

Equipment we use:

Weather-station
Davis Vue

Weather-program
Meteohub

Weather-server
Raspberry PI 2 B+

Provider
1 and 1

Davis Vue

Meteohub

Raspberry PI 2 B+

1 and 1